Hillsboro, OR

6:06 PM PDT on October 24, 2014 (GMT -0700)
Portland-Hillsboro | Change Station
CLOSE
Current Station
Airport
Location: Portland Hillsboro,
Elevation: 203 ft
Nearby Weather Stations

Elev 203 ft 45.54 °N, 122.95 °W | Updated 13 minutes ago

Light Rain
Light Rain Mist
53 °F
Feels Like 53 °F
N
0
Wind Variable Wind from North

Today
High -- | Low -- °F
--% Chance of Precip.
Yesterday
High -- | Low -- °F
Precip. -- in
7:40 AM 6:10 PM
New Moon, 1% visible
Pressure 29.81 in
Visibility 4.0 miles
Clouds Scattered Clouds 7000 ft
Overcast 8500 ft
Dew Point 51 °F
Humidity 93%
Rainfall 0.12 in
Snow Depth 0 in
UV 0 out of 12
Pollen .40 out of 12
Ozone Good
PM2.5 Moderate
Flu Activity Sporadic
METAR KHIO 250053Z 00000KT 4SM -RA BR SCT070 OVC085 12/11 A2981 RMK AO2 SLP093 P0003 T01170106

More Conditions Fewer Conditions

Pressure 29.81 in
Visibility 4.0 miles
Clouds Scattered Clouds 7000 ft
Overcast 8500 ft
Dew Point 51 °F
Humidity 93%
Rainfall 0.12 in
Snow Depth 0 in
UV 0 out of 12
Pollen .40 out of 12
Ozone Good
PM2.5 Moderate
Flu Activity Sporadic
METAR KHIO 250053Z 00000KT 4SM -RA BR SCT070 OVC085 12/11 A2981 RMK AO2 SLP093 P0003 T01170106

More Conditions Fewer Conditions

10-Day Weather Forecast

Almanac

Astronomy

Oct. 24, 2014 Rise Set
Actual Time 7:40 AM PDT 6:10 PM PDT
Civil Twilight 7:10 AM PDT 6:41 PM PDT
Nautical Twilight 6:35 AM PDT 7:15 PM PDT
Astronomical Twilight 6:01 AM PDT 7:50 PM PDT
Moon 8:26 AM PDT (10/24) 6:52 PM PDT (10/24)
Length of Visible Light 11h 31m
Length of Day
10h 30m
Tomorrow will be 2m 59s shorter.
New Moon, 1% of the Moon is Illuminated
Today
New Moon
Oct 30
First Quarter
Nov 6
Full
Nov 14
Last Quarter
Nov 22
New

Today's Extremes

State Highs State Lows

Community

WunderPhotos

Upload Photos

1,764,737 photos uploaded!

WunderBlogs® & News

Nearby

Air Quality

  Air Quality AQ Index Pollutant
Yesterday Good
PM2.5
Yesterday Good
OZONE
Current Moderate
PM2.5
Current Good
OZONE
Friday Good
PM2.5
Saturday Good
PM2.5

Snow Depth

Station Depth Elevation
Seine Creek 0 in 2000 ft
North Fork 0 in 3120 ft
Greenpoint 0 in 3200 ft
Mud Ridge 0 in 3800 ft
Clear Lake 1 in 3500 ft

Earthquake Activity

City Distance Mag. Time & Date
No recent earthquake activity has been reported nearby.
Minimum magnitude displayed is 2.5.

Coastal Water Temperatures

Place Temperature
No Stations Reporting

Nearby Weather Stations